createdAt,value
2019-04-20T00:00:10.933Z,22.60
2019-04-20T00:01:12.617Z,22.61
2019-04-20T00:02:14.336Z,22.56
2019-04-20T00:03:09.665Z,22.59
2019-04-20T00:04:17.018Z,22.64
2019-04-20T00:05:09.398Z,22.56
2019-04-20T00:06:09.525Z,22.56
2019-04-20T00:07:10.180Z,22.46
2019-04-20T00:08:16.679Z,22.51
2019-04-20T00:09:15.953Z,22.46
2019-04-20T00:10:15.061Z,22.48
2019-04-20T00:11:16.346Z,22.46
2019-04-20T00:12:18.057Z,22.56
2019-04-20T00:13:22.963Z,22.45
2019-04-20T00:14:16.200Z,22.45
2019-04-20T00:15:09.560Z,22.51
2019-04-20T00:16:10.262Z,22.48
2019-04-20T00:17:09.633Z,22.48
2019-04-20T00:18:11.430Z,22.35
2019-04-20T00:19:10.657Z,22.44
2019-04-20T00:20:16.417Z,22.42
2019-04-20T00:21:14.117Z,22.44
2019-04-20T00:22:12.326Z,22.39
2019-04-20T00:23:13.481Z,22.45
2019-04-20T00:24:16.686Z,22.45
2019-04-20T00:25:15.503Z,22.36
2019-04-20T00:26:17.338Z,22.46
2019-04-20T00:27:32.748Z,22.41
2019-04-20T00:28:31.930Z,22.39
2019-04-20T00:29:32.206Z,22.42
2019-04-20T00:30:31.494Z,22.44
2019-04-20T00:31:26.736Z,22.46
2019-04-20T00:32:22.102Z,22.45
2019-04-20T00:33:27.128Z,22.41
2019-04-20T00:34:18.087Z,22.29
2019-04-20T00:35:10.448Z,22.24
2019-04-20T00:36:10.221Z,22.30
2019-04-20T00:37:10.894Z,22.29
2019-04-20T00:38:11.720Z,22.29
2019-04-20T00:39:13.199Z,22.31
2019-04-20T00:40:10.380Z,22.33
2019-04-20T00:41:13.725Z,22.33
2019-04-20T00:42:13.328Z,22.27
2019-04-20T00:43:13.028Z,22.21
2019-04-20T00:44:18.668Z,22.29
2019-04-20T00:45:19.086Z,22.30
2019-04-20T00:46:19.620Z,22.23
2019-04-20T00:47:20.061Z,22.27
2019-04-20T00:48:22.445Z,22.24
2019-04-20T00:49:25.363Z,22.23
2019-04-20T00:50:28.345Z,22.21
2019-04-20T00:51:39.458Z,22.24
2019-04-20T00:52:29.218Z,22.24
2019-04-20T00:53:21.601Z,22.21
2019-04-20T00:55:10.879Z,22.17
2019-04-20T00:56:11.922Z,22.15
2019-04-20T00:57:20.314Z,22.12
2019-04-20T00:58:20.190Z,22.12
2019-04-20T00:59:25.569Z,22.20
2019-04-20T01:00:26.876Z,22.09
2019-04-20T01:01:31.027Z,22.11
2019-04-20T01:02:27.544Z,22.06
2019-04-20T01:03:32.407Z,22.12
2019-04-20T01:04:32.829Z,22.09
2019-04-20T01:05:23.296Z,22.17
2019-04-20T01:06:26.939Z,22.08
2019-04-20T01:07:20.308Z,22.04
2019-04-20T01:08:11.403Z,22.09
2019-04-20T01:09:11.919Z,22.01
2019-04-20T01:10:11.320Z,22.06
2019-04-20T01:11:12.319Z,22.06
2019-04-20T01:12:16.428Z,22.06
2019-04-20T01:13:15.551Z,22.01
2019-04-20T01:14:14.082Z,22.05
2019-04-20T01:15:23.108Z,22.06
2019-04-20T01:16:25.719Z,21.99
2019-04-20T01:17:13.268Z,21.98
2019-04-20T01:18:14.046Z,21.94
2019-04-20T01:19:11.686Z,22.01
2019-04-20T01:20:11.697Z,21.96
2019-04-20T01:21:16.517Z,21.90
2019-04-20T01:22:15.862Z,21.93
2019-04-20T01:23:16.002Z,21.94
2019-04-20T01:24:20.171Z,21.91
2019-04-20T01:25:18.202Z,21.86
2019-04-20T01:26:16.371Z,21.83
2019-04-20T01:27:29.536Z,21.91
2019-04-20T01:28:27.716Z,21.83
2019-04-20T01:29:21.838Z,21.83
2019-04-20T01:30:21.049Z,21.91
2019-04-20T01:31:21.912Z,21.83
2019-04-20T01:32:23.221Z,21.91
2019-04-20T01:33:27.099Z,21.90
2019-04-20T01:34:26.705Z,21.94
2019-04-20T01:35:32.026Z,21.82
2019-04-20T01:36:30.774Z,21.96
2019-04-20T01:37:28.441Z,21.93
2019-04-20T01:38:26.227Z,21.90
2019-04-20T01:39:20.587Z,21.85
2019-04-20T01:40:13.122Z,21.85
2019-04-20T01:41:12.340Z,21.86
2019-04-20T01:42:13.085Z,21.89
2019-04-20T01:43:12.446Z,21.83
2019-04-20T01:44:13.438Z,21.82
2019-04-20T01:45:19.400Z,21.68
2019-04-20T01:46:17.093Z,21.77
2019-04-20T01:47:13.350Z,21.68
2019-04-20T01:48:14.178Z,21.82
2019-04-20T01:49:18.285Z,21.70
2019-04-20T01:50:16.775Z,21.81
2019-04-20T01:51:20.766Z,21.74
2019-04-20T01:52:20.099Z,21.71
2019-04-20T01:53:23.599Z,21.74
2019-04-20T01:54:26.087Z,21.70
2019-04-20T01:55:28.831Z,21.68
2019-04-20T01:56:27.492Z,21.70
2019-04-20T01:57:19.979Z,21.70
2019-04-20T01:58:37.701Z,21.66
2019-04-20T01:59:24.176Z,21.64
2019-04-20T02:00:22.627Z,21.66
2019-04-20T02:01:19.450Z,21.63
2019-04-20T02:02:16.553Z,21.59
2019-04-20T02:03:13.396Z,21.64
2019-04-20T02:04:20.297Z,21.70
2019-04-20T02:05:20.738Z,21.63
2019-04-20T02:06:17.895Z,21.61
2019-04-20T02:07:13.646Z,21.63
2019-04-20T02:08:18.351Z,21.64
2019-04-20T02:09:18.645Z,21.56
2019-04-20T02:10:16.516Z,21.63
2019-04-20T02:11:20.763Z,21.59
2019-04-20T02:12:19.088Z,21.53
2019-04-20T02:13:13.362Z,21.53
2019-04-20T02:14:18.928Z,21.56
2019-04-20T02:15:24.211Z,21.55
2019-04-20T02:16:22.632Z,21.52
2019-04-20T02:17:21.342Z,21.45
2019-04-20T02:18:29.736Z,21.51
2019-04-20T02:19:32.013Z,21.46
2019-04-20T02:20:36.287Z,21.48
2019-04-20T02:21:31.683Z,21.40
2019-04-20T02:22:34.217Z,21.38
2019-04-20T02:23:25.295Z,21.40
2019-04-20T02:24:15.703Z,21.36
2019-04-20T02:25:14.199Z,21.36
2019-04-20T02:26:14.274Z,21.33
2019-04-20T02:27:14.755Z,21.27
2019-04-20T02:28:27.716Z,21.30
2019-04-20T02:29:35.065Z,21.28
2019-04-20T02:30:53.889Z,21.30
2019-04-20T02:32:01.524Z,21.30
2019-04-20T02:32:47.198Z,21.22
2019-04-20T02:33:48.873Z,21.21
2019-04-20T02:35:56.108Z,21.22
2019-04-20T02:36:58.864Z,21.24
2019-04-20T02:37:56.879Z,21.19
2019-04-20T02:39:54.287Z,21.19
2019-04-20T02:40:54.506Z,21.11
2019-04-20T02:41:50.983Z,21.09
2019-04-20T02:44:03.490Z,21.13
2019-04-20T02:44:49.906Z,21.09
2019-04-20T02:45:45.370Z,21.06
2019-04-20T02:46:51.080Z,21.06
2019-04-20T02:47:50.566Z,21.01
2019-04-20T02:48:58.610Z,21.01
2019-04-20T02:50:00.237Z,21.01
2019-04-20T02:50:43.709Z,21.09
2019-04-20T02:51:46.965Z,21.05
2019-04-20T02:52:56.848Z,21.03
2019-04-20T02:54:05.823Z,21.03
2019-04-20T02:54:46.743Z,21.01
2019-04-20T02:55:53.455Z,21.03
2019-04-20T02:56:57.425Z,20.97
2019-04-20T02:57:53.013Z,20.97
2019-04-20T02:58:41.842Z,21.01
2019-04-20T03:00:03.266Z,20.98
2019-04-20T03:00:39.621Z,20.97
2019-04-20T03:01:36.141Z,20.98
2019-04-20T03:02:33.556Z,21.00
2019-04-20T03:03:26.460Z,20.97
2019-04-20T03:04:25.784Z,20.97
2019-04-20T03:05:28.123Z,20.91
2019-04-20T03:06:26.358Z,20.97
2019-04-20T03:07:32.962Z,21.01
2019-04-20T03:08:33.102Z,20.98
2019-04-20T03:09:36.863Z,20.97
2019-04-20T03:10:42.267Z,20.97
2019-04-20T03:11:48.203Z,20.96
2019-04-20T03:12:38.637Z,20.88
2019-04-20T03:13:39.673Z,20.88
2019-04-20T03:14:30.257Z,21.00
2019-04-20T03:15:40.131Z,20.97
2019-04-20T03:16:32.357Z,20.94
2019-04-20T03:17:38.759Z,21.01
2019-04-20T03:19:28.951Z,20.94
2019-04-20T03:20:36.548Z,20.96
2019-04-20T03:21:37.599Z,20.96
2019-04-20T03:22:59.930Z,20.93
2019-04-20T03:23:45.837Z,20.90
2019-04-20T03:24:54.431Z,20.88
2019-04-20T03:25:36.079Z,21.03
2019-04-20T03:26:32.998Z,20.88
2019-04-20T03:27:33.152Z,20.91
2019-04-20T03:28:37.327Z,20.91
2019-04-20T03:29:37.298Z,20.91
2019-04-20T03:31:15.713Z,20.88
2019-04-20T03:31:54.374Z,20.85
2019-04-20T03:34:05.658Z,20.98
2019-04-20T03:35:03.709Z,21.00
2019-04-20T03:35:43.456Z,20.87
2019-04-20T03:36:42.869Z,21.00
2019-04-20T03:37:52.585Z,20.97
2019-04-20T03:38:37.176Z,20.94
2019-04-20T03:39:31.343Z,20.88
2019-04-20T03:40:32.484Z,20.91
2019-04-20T03:41:24.452Z,20.90
2019-04-20T03:42:16.256Z,20.87
2019-04-20T03:43:16.299Z,20.87
2019-04-20T03:44:20.945Z,20.90
2019-04-20T03:45:19.979Z,20.85
2019-04-20T03:46:19.850Z,20.81
2019-04-20T03:47:26.637Z,20.85
2019-04-20T03:48:38.128Z,20.85
2019-04-20T03:49:46.979Z,20.88
2019-04-20T03:50:45.429Z,20.83
2019-04-20T03:51:45.346Z,20.85
2019-04-20T03:52:33.009Z,20.82
2019-04-20T03:53:37.971Z,20.87
2019-04-20T03:54:31.869Z,20.76
2019-04-20T03:55:36.910Z,20.82
2019-04-20T03:56:40.147Z,20.81
2019-04-20T03:57:38.315Z,20.87
2019-04-20T03:58:33.494Z,20.75
2019-04-20T03:59:39.157Z,20.82
2019-04-20T04:00:36.189Z,20.85
2019-04-20T04:02:47.937Z,20.83
2019-04-20T04:03:53.547Z,20.85
2019-04-20T04:04:38.846Z,20.83
2019-04-20T04:05:32.392Z,20.78
2019-04-20T04:06:26.339Z,20.73
2019-04-20T04:07:26.847Z,20.81
2019-04-20T04:08:27.718Z,20.81
2019-04-20T04:09:30.511Z,20.76
2019-04-20T04:10:31.615Z,20.71
2019-04-20T04:11:35.473Z,20.75
2019-04-20T04:12:25.670Z,20.73
2019-04-20T04:13:18.597Z,20.61
2019-04-20T04:14:17.742Z,20.68
2019-04-20T04:15:17.298Z,20.69
2019-04-20T04:16:21.576Z,20.61
2019-04-20T04:17:21.315Z,20.60
2019-04-20T04:19:23.155Z,20.54
2019-04-20T04:20:19.707Z,20.46
2019-04-20T04:21:27.118Z,20.41
2019-04-20T04:22:31.237Z,20.48
2019-04-20T04:23:35.764Z,20.42
2019-04-20T04:24:29.619Z,20.42
2019-04-20T04:25:28.763Z,20.41
2019-04-20T04:26:34.096Z,20.40
2019-04-20T04:27:37.022Z,20.33
2019-04-20T04:28:35.246Z,20.35
2019-04-20T04:29:40.128Z,20.37
2019-04-20T04:30:30.590Z,20.40
2019-04-20T04:31:37.616Z,20.33
2019-04-20T04:33:04.114Z,20.26
2019-04-20T04:33:53.241Z,20.33
2019-04-20T04:34:38.908Z,20.22
2019-04-20T04:35:31.375Z,20.30
2019-04-20T04:36:37.564Z,20.20
2019-04-20T04:37:37.646Z,20.23
2019-04-20T04:38:46.501Z,20.15
2019-04-20T04:39:40.668Z,20.16
2019-04-20T04:41:36.363Z,20.13
2019-04-20T04:42:42.095Z,20.27
2019-04-20T04:43:38.953Z,20.22
2019-04-20T04:44:30.224Z,20.30
2019-04-20T04:45:22.205Z,20.20
2019-04-20T04:46:18.584Z,20.31
2019-04-20T04:47:19.736Z,20.19
2019-04-20T04:48:25.215Z,20.20
2019-04-20T04:49:26.325Z,20.13
2019-04-20T04:50:24.527Z,20.16
2019-04-20T04:51:23.990Z,20.19
2019-04-20T04:52:29.407Z,20.15
2019-04-20T04:53:31.226Z,20.15
2019-04-20T04:54:30.450Z,20.17
2019-04-20T04:55:31.198Z,20.17
2019-04-20T04:56:21.864Z,20.17
2019-04-20T04:57:20.054Z,20.19
2019-04-20T04:58:19.536Z,20.16
2019-04-20T04:59:19.305Z,20.19
2019-04-20T05:00:24.650Z,20.15
2019-04-20T05:01:25.122Z,20.13
2019-04-20T05:02:23.632Z,20.19
2019-04-20T05:03:37.588Z,20.17
2019-04-20T05:04:46.089Z,20.17
2019-04-20T05:05:35.925Z,20.16
2019-04-20T05:06:33.205Z,20.19
2019-04-20T05:07:37.066Z,20.17
2019-04-20T05:08:27.037Z,20.17
2019-04-20T05:09:20.443Z,20.15
2019-04-20T05:10:20.599Z,20.10
2019-04-20T05:11:19.600Z,20.10
2019-04-20T05:12:23.891Z,20.19
2019-04-20T05:13:19.919Z,20.12
2019-04-20T05:14:24.498Z,20.12
2019-04-20T05:15:34.893Z,20.17
2019-04-20T05:16:38.447Z,20.17
2019-04-20T05:17:40.678Z,20.16
2019-04-20T05:18:44.991Z,20.16
2019-04-20T05:19:41.371Z,20.16
2019-04-20T05:20:41.566Z,20.15
2019-04-20T05:21:39.425Z,20.23
2019-04-20T05:22:42.888Z,20.20
2019-04-20T05:23:31.919Z,20.26
2019-04-20T05:24:37.294Z,20.19
2019-04-20T05:25:37.774Z,20.25
2019-04-20T05:26:42.694Z,20.25
2019-04-20T05:27:39.114Z,20.20
2019-04-20T05:28:30.613Z,20.31
2019-04-20T05:29:25.390Z,20.33
2019-04-20T05:30:20.206Z,20.33
2019-04-20T05:31:24.485Z,20.35
2019-04-20T05:32:32.602Z,20.30
2019-04-20T05:33:28.080Z,20.26
2019-04-20T05:34:47.989Z,20.25
2019-04-20T05:35:40.742Z,20.35
2019-04-20T05:36:41.617Z,20.35
2019-04-20T05:38:03.580Z,20.33
2019-04-20T05:38:35.451Z,20.25
2019-04-20T05:39:39.908Z,20.25
2019-04-20T05:40:38.650Z,20.22
2019-04-20T05:41:39.094Z,20.23
2019-04-20T05:42:43.890Z,20.16
2019-04-20T05:43:36.262Z,20.15
2019-04-20T05:44:42.753Z,20.16
2019-04-20T05:45:34.017Z,20.15
2019-04-20T05:46:37.060Z,20.15
2019-04-20T05:47:38.544Z,20.16
2019-04-20T05:48:44.232Z,20.25
2019-04-20T05:49:34.915Z,20.23
2019-04-20T05:50:37.738Z,20.15
2019-04-20T05:51:39.702Z,20.17
2019-04-20T05:53:45.364Z,20.20
2019-04-20T05:55:38.923Z,20.15
2019-04-20T05:56:53.657Z,20.10
2019-04-20T05:57:48.174Z,20.17
2019-04-20T05:58:40.195Z,20.17
2019-04-20T05:59:47.060Z,20.20
2019-04-20T06:00:51.910Z,20.15
2019-04-20T06:02:42.161Z,20.25
2019-04-20T06:03:37.208Z,20.22
2019-04-20T06:04:58.784Z,20.27
2019-04-20T06:05:49.546Z,20.23
2019-04-20T06:06:45.195Z,20.20
2019-04-20T06:07:42.131Z,20.23
2019-04-20T06:08:51.096Z,20.20
2019-04-20T06:09:42.253Z,20.33
2019-04-20T06:10:45.105Z,20.26
2019-04-20T06:12:00.690Z,20.31
2019-04-20T06:12:39.971Z,20.34
2019-04-20T06:13:32.729Z,20.44
2019-04-20T06:14:39.508Z,20.44
2019-04-20T06:15:38.454Z,20.44
2019-04-20T06:16:46.877Z,20.57
2019-04-20T06:17:37.318Z,20.66
2019-04-20T06:18:33.649Z,20.68
2019-04-20T06:19:42.265Z,20.85
2019-04-20T06:20:41.134Z,20.78
2019-04-20T06:21:42.273Z,20.90
2019-04-20T06:22:41.717Z,20.85
2019-04-20T06:23:47.910Z,20.85
2019-04-20T06:24:49.447Z,20.93
2019-04-20T06:25:54.856Z,20.97
2019-04-20T06:26:52.007Z,21.03
2019-04-20T06:27:45.101Z,21.08
2019-04-20T06:28:37.698Z,21.05
2019-04-20T06:29:43.864Z,21.15
2019-04-20T06:30:40.585Z,21.18
2019-04-20T06:31:42.158Z,21.18
2019-04-20T06:32:44.226Z,21.19
2019-04-20T06:34:05.563Z,21.34
2019-04-20T06:34:55.900Z,21.36
2019-04-20T06:36:03.207Z,21.33
2019-04-20T06:36:47.462Z,21.31
2019-04-20T06:37:50.952Z,21.38
2019-04-20T06:38:58.764Z,21.46
2019-04-20T06:40:53.985Z,21.46
2019-04-20T06:42:02.268Z,21.46
2019-04-20T06:42:41.054Z,21.48
2019-04-20T06:43:50.511Z,21.53
2019-04-20T06:44:41.271Z,21.58
2019-04-20T06:45:51.090Z,21.59
2019-04-20T06:46:54.169Z,21.66
2019-04-20T06:47:47.286Z,21.64
2019-04-20T06:48:49.968Z,21.70
2019-04-20T06:49:38.095Z,21.68
2019-04-20T06:50:39.037Z,21.73
2019-04-20T06:51:42.716Z,21.75
2019-04-20T06:52:36.802Z,21.74
2019-04-20T06:53:45.568Z,21.81
2019-04-20T06:54:43.182Z,21.70
2019-04-20T06:56:42.554Z,21.85
2019-04-20T06:57:58.145Z,21.83
2019-04-20T06:58:53.181Z,21.85
2019-04-20T06:59:42.959Z,21.94
2019-04-20T07:00:42.042Z,21.96
2019-04-20T07:01:51.498Z,21.91
2019-04-20T07:02:44.621Z,21.90
2019-04-20T07:04:14.575Z,21.94
2019-04-20T07:04:52.107Z,21.98
2019-04-20T07:05:49.248Z,21.96
2019-04-20T07:06:50.689Z,22.02
2019-04-20T07:07:47.525Z,21.99
2019-04-20T07:09:55.885Z,21.99
2019-04-20T07:10:43.927Z,22.06
2019-04-20T07:11:43.331Z,21.99
2019-04-20T07:12:43.614Z,22.04
2019-04-20T07:13:35.929Z,22.06
2019-04-20T07:14:36.686Z,22.08
2019-04-20T07:15:45.162Z,22.06
2019-04-20T07:16:44.855Z,22.06
2019-04-20T07:19:40.242Z,22.11
2019-04-20T07:20:51.674Z,22.15
2019-04-20T07:22:00.131Z,22.23
2019-04-20T07:22:49.264Z,22.26
2019-04-20T07:23:51.367Z,22.20
2019-04-20T07:24:48.640Z,22.27
2019-04-20T07:25:52.854Z,22.23
2019-04-20T07:26:50.183Z,22.26
2019-04-20T07:27:48.979Z,22.31
2019-04-20T07:28:46.903Z,22.20
2019-04-20T07:29:47.456Z,22.33
2019-04-20T07:30:46.372Z,22.29
2019-04-20T07:31:40.970Z,22.31
2019-04-20T07:32:52.515Z,22.41
2019-04-20T07:33:49.605Z,22.31
2019-04-20T07:34:48.814Z,22.39
2019-04-20T07:35:40.425Z,22.35
2019-04-20T07:36:52.314Z,22.42
2019-04-20T07:38:49.903Z,22.45
2019-04-20T07:39:52.325Z,22.39
2019-04-20T07:40:44.452Z,22.48
2019-04-20T07:41:50.835Z,22.45
2019-04-20T07:42:48.684Z,22.49
2019-04-20T07:43:57.474Z,22.48
2019-04-20T07:44:48.775Z,22.42
2019-04-20T07:45:40.184Z,22.49
2019-04-20T07:46:56.382Z,22.51
2019-04-20T07:47:49.153Z,22.46
2019-04-20T07:48:42.360Z,22.52
2019-04-20T07:49:42.065Z,22.54
2019-04-20T07:50:37.425Z,22.59
2019-04-20T07:51:30.145Z,22.56
2019-04-20T07:52:35.189Z,22.59
2019-04-20T07:53:36.342Z,22.54
2019-04-20T07:55:06.018Z,22.57
2019-04-20T07:55:52.383Z,22.60
2019-04-20T07:56:50.501Z,22.64
2019-04-20T07:58:34.844Z,22.63
2019-04-20T07:59:39.748Z,22.60
2019-04-20T08:00:56.136Z,22.70
2019-04-20T08:01:54.757Z,22.61
2019-04-20T08:02:52.009Z,22.69
2019-04-20T08:03:45.898Z,22.64
2019-04-20T08:04:36.477Z,22.75
2019-04-20T08:05:36.368Z,22.67
2019-04-20T08:06:32.136Z,22.70
2019-04-20T08:07:36.757Z,22.61
2019-04-20T08:08:39.981Z,22.76
2019-04-20T08:09:37.376Z,22.75
2019-04-20T08:10:47.182Z,22.64
2019-04-20T08:11:53.725Z,22.70
2019-04-20T08:12:51.440Z,22.72
2019-04-20T08:13:51.474Z,22.74
2019-04-20T08:14:53.965Z,22.72
2019-04-20T08:15:49.479Z,22.75
2019-04-20T08:17:05.348Z,22.72
2019-04-20T08:18:51.321Z,22.72
2019-04-20T08:19:46.731Z,22.75
2019-04-20T08:20:45.059Z,22.86
2019-04-20T08:21:47.310Z,22.79
2019-04-20T08:22:49.188Z,22.85
2019-04-20T08:23:47.302Z,22.89
2019-04-20T08:24:42.884Z,22.82
2019-04-20T08:25:36.167Z,22.86
2019-04-20T08:26:31.079Z,22.81
2019-04-20T08:27:25.732Z,22.86
2019-04-20T08:28:35.895Z,22.89
2019-04-20T08:29:37.862Z,22.94
2019-04-20T08:30:44.066Z,22.97
2019-04-20T08:31:40.724Z,22.88
2019-04-20T08:32:41.257Z,22.91
2019-04-20T08:33:55.476Z,22.93
2019-04-20T08:34:50.389Z,22.94
2019-04-20T08:36:47.773Z,22.96
2019-04-20T08:37:48.902Z,22.97
2019-04-20T08:39:08.273Z,23.01
2019-04-20T08:40:47.907Z,23.04
2019-04-20T08:41:50.339Z,23.06
2019-04-20T08:42:59.768Z,23.01
2019-04-20T08:45:49.206Z,23.00
2019-04-20T08:46:53.684Z,23.01
2019-04-20T08:47:56.384Z,22.99
2019-04-20T08:48:46.800Z,23.01
2019-04-20T08:49:51.885Z,23.07
2019-04-20T08:50:45.193Z,23.09
2019-04-20T08:51:55.631Z,23.06
2019-04-20T08:53:50.741Z,23.11
2019-04-20T08:54:37.950Z,23.06
2019-04-20T08:55:41.577Z,23.01
2019-04-20T08:56:35.123Z,23.07
2019-04-20T08:57:27.077Z,23.18
2019-04-20T08:58:27.273Z,23.12
2019-04-20T08:59:26.394Z,23.18
2019-04-20T09:00:34.813Z,23.16
2019-04-20T09:01:29.082Z,23.16
2019-04-20T09:02:27.967Z,23.18
2019-04-20T09:03:31.671Z,23.16
2019-04-20T09:04:37.128Z,23.18
2019-04-20T09:05:40.032Z,23.15
2019-04-20T09:06:41.516Z,23.18
2019-04-20T09:07:30.228Z,23.22
2019-04-20T09:08:37.258Z,23.19
2019-04-20T09:09:49.960Z,23.23
2019-04-20T09:10:45.322Z,23.19
2019-04-20T09:11:51.616Z,23.23
2019-04-20T09:12:40.917Z,23.26
2019-04-20T09:13:35.324Z,23.29
2019-04-20T09:14:28.274Z,23.23
2019-04-20T09:15:27.838Z,23.26
2019-04-20T09:16:37.073Z,23.29
2019-04-20T09:17:36.696Z,23.34
2019-04-20T09:18:36.683Z,23.35
2019-04-20T09:19:36.783Z,23.31
2019-04-20T09:20:36.240Z,23.29
2019-04-20T09:21:35.599Z,23.31
2019-04-20T09:22:38.795Z,23.32
2019-04-20T09:23:42.306Z,23.31
2019-04-20T09:24:51.479Z,23.39
2019-04-20T09:25:57.726Z,23.39
2019-04-20T09:26:43.356Z,23.39
2019-04-20T09:27:34.791Z,23.34
2019-04-20T09:28:36.363Z,23.35
2019-04-20T09:29:37.227Z,23.35
2019-04-20T09:30:39.414Z,23.42
2019-04-20T09:31:40.117Z,23.41
2019-04-20T09:32:45.306Z,23.37
2019-04-20T09:33:49.681Z,23.35
2019-04-20T09:34:49.096Z,23.41
2019-04-20T09:35:43.202Z,23.45
2019-04-20T09:36:42.029Z,23.42
2019-04-20T09:37:47.280Z,23.41
2019-04-20T09:38:40.848Z,23.47
2019-04-20T09:39:35.737Z,23.49
2019-04-20T09:40:46.047Z,23.44
2019-04-20T09:41:48.998Z,23.42
2019-04-20T09:42:28.136Z,23.52
2019-04-20T09:43:28.098Z,23.49
2019-04-20T09:44:33.639Z,23.49
2019-04-20T09:45:37.378Z,23.47
2019-04-20T09:46:30.890Z,23.53
2019-04-20T09:47:36.844Z,23.52
2019-04-20T09:48:38.158Z,23.41
2019-04-20T09:49:38.748Z,23.53
2019-04-20T09:50:45.010Z,23.52
2019-04-20T09:51:46.708Z,23.47
2019-04-20T09:52:48.197Z,23.59
2019-04-20T09:53:41.939Z,23.57
2019-04-20T09:54:50.017Z,23.59
2019-04-20T09:55:44.555Z,23.59
2019-04-20T09:56:49.691Z,23.56
2019-04-20T09:57:43.995Z,23.60
2019-04-20T09:58:53.386Z,23.59
2019-04-20T09:59:44.835Z,23.60
2019-04-20T10:00:43.804Z,23.56
2019-04-20T10:01:32.639Z,23.60
2019-04-20T10:02:31.528Z,23.60
2019-04-20T10:03:29.061Z,23.59
2019-04-20T10:04:29.116Z,23.62
2019-04-20T10:05:29.576Z,23.63
2019-04-20T10:06:33.848Z,23.64
2019-04-20T10:07:33.444Z,23.59
2019-04-20T10:08:29.336Z,23.63
2019-04-20T10:09:34.463Z,23.68
2019-04-20T10:10:33.947Z,23.63
2019-04-20T10:11:29.828Z,23.59
2019-04-20T10:12:29.393Z,23.63
2019-04-20T10:13:30.044Z,23.62
2019-04-20T10:14:28.998Z,23.63
2019-04-20T10:15:31.052Z,23.56
2019-04-20T10:16:29.445Z,23.68
2019-04-20T10:17:31.663Z,23.64
2019-04-20T10:18:30.006Z,23.69
2019-04-20T10:19:33.883Z,23.68
2019-04-20T10:20:32.811Z,23.64
2019-04-20T10:21:29.954Z,23.69
2019-04-20T10:22:29.211Z,23.67
2019-04-20T10:23:30.301Z,23.67
2019-04-20T10:24:30.526Z,23.74
2019-04-20T10:25:30.782Z,23.75
2019-04-20T10:26:30.263Z,23.68
2019-04-20T10:27:30.687Z,23.64
2019-04-20T10:29:29.394Z,23.75
2019-04-20T10:30:30.577Z,23.77
2019-04-20T10:31:30.687Z,23.72
2019-04-20T10:32:36.303Z,23.74
2019-04-20T10:34:30.567Z,23.74
2019-04-20T10:35:29.802Z,23.79
2019-04-20T10:36:29.847Z,23.74
2019-04-20T10:37:29.676Z,23.75
2019-04-20T10:39:30.795Z,23.77
2019-04-20T10:40:45.015Z,23.78
2019-04-20T10:41:40.911Z,23.79
2019-04-20T10:42:30.200Z,23.81
2019-04-20T10:43:30.251Z,23.77
2019-04-20T10:44:29.914Z,23.78
2019-04-20T10:45:30.895Z,23.87
2019-04-20T10:46:31.103Z,23.75
2019-04-20T10:47:30.019Z,23.77
2019-04-20T10:48:32.012Z,23.78
2019-04-20T10:49:31.182Z,23.90
2019-04-20T10:50:32.151Z,23.84
2019-04-20T10:51:31.439Z,23.81
2019-04-20T10:52:30.186Z,23.87
2019-04-20T10:53:30.273Z,23.89
2019-04-20T10:54:30.606Z,23.82
2019-04-20T10:55:31.435Z,23.84
2019-04-20T10:56:31.661Z,23.89
2019-04-20T10:57:31.250Z,23.89
2019-04-20T10:58:31.488Z,23.87
2019-04-20T10:59:31.751Z,23.84
2019-04-20T11:00:31.383Z,23.90
2019-04-20T11:01:31.651Z,23.93
2019-04-20T11:02:31.840Z,23.92
2019-04-20T11:03:30.621Z,23.89
2019-04-20T11:04:30.906Z,23.94
2019-04-20T11:05:30.761Z,23.81
2019-04-20T11:06:30.673Z,23.90
2019-04-20T11:07:30.753Z,23.99
2019-04-20T11:08:30.793Z,23.92
2019-04-20T11:09:30.829Z,23.90
2019-04-20T11:10:46.784Z,23.87
2019-04-20T11:11:32.482Z,23.87
2019-04-20T11:12:30.945Z,23.87
2019-04-20T11:13:30.965Z,23.89
2019-04-20T11:14:34.540Z,23.93
2019-04-20T11:15:32.405Z,23.87
2019-04-20T11:16:31.028Z,23.94
2019-04-20T11:17:31.794Z,23.92
2019-04-20T11:18:31.444Z,23.92
2019-04-20T11:19:31.585Z,23.93
2019-04-20T11:20:31.177Z,23.87
2019-04-20T11:21:32.347Z,23.94
2019-04-20T11:22:32.494Z,23.93
2019-04-20T11:23:32.114Z,23.96
2019-04-20T11:25:32.432Z,23.96
2019-04-20T11:26:32.175Z,23.94
2019-04-20T11:27:32.200Z,23.93
2019-04-20T11:28:32.351Z,24.00
2019-04-20T11:29:31.903Z,23.99
2019-04-20T11:30:32.165Z,23.99
2019-04-20T11:31:37.345Z,23.97
2019-04-20T11:32:31.926Z,24.04
2019-04-20T11:33:32.058Z,24.00
2019-04-20T11:34:35.343Z,24.00
2019-04-20T11:35:37.290Z,24.00
2019-04-20T11:36:32.991Z,23.99
2019-04-20T11:37:33.120Z,24.04
2019-04-20T11:38:33.146Z,24.00
2019-04-20T11:39:32.874Z,24.04
2019-04-20T11:42:32.032Z,24.08
2019-04-20T11:43:31.987Z,24.06
2019-04-20T11:44:33.262Z,24.06
2019-04-20T11:46:32.442Z,24.04
2019-04-20T11:47:33.575Z,24.15
2019-04-20T11:48:33.731Z,24.05
2019-04-20T11:49:33.367Z,24.08
2019-04-20T11:50:33.620Z,24.11
2019-04-20T11:51:33.798Z,24.11
2019-04-20T11:52:37.255Z,24.18
2019-04-20T11:54:32.693Z,24.11
2019-04-20T11:55:32.373Z,24.12
2019-04-20T11:56:36.597Z,24.11
2019-04-20T11:57:33.422Z,24.08
2019-04-20T11:58:33.179Z,24.21
2019-04-20T11:59:32.809Z,24.18
2019-04-20T12:00:34.271Z,24.06
2019-04-20T12:01:37.070Z,24.16
2019-04-20T12:02:38.271Z,24.16
2019-04-20T12:03:44.483Z,24.05
2019-04-20T12:04:40.684Z,24.16
2019-04-20T12:05:40.802Z,24.09
2019-04-20T12:06:32.821Z,24.15
2019-04-20T12:07:35.222Z,24.16
2019-04-20T12:08:36.060Z,24.14
2019-04-20T12:09:33.504Z,24.21
2019-04-20T12:10:33.173Z,24.19
2019-04-20T12:11:45.368Z,24.21
2019-04-20T12:12:41.819Z,24.15
2019-04-20T12:13:34.414Z,24.16
2019-04-20T12:14:33.094Z,24.18
2019-04-20T12:15:36.475Z,24.15
2019-04-20T12:16:33.162Z,24.18
2019-04-20T12:17:33.519Z,24.23
2019-04-20T12:18:33.685Z,24.21
2019-04-20T12:19:36.018Z,24.15
2019-04-20T12:20:34.495Z,24.29
2019-04-20T12:21:33.282Z,24.18
2019-04-20T12:22:34.528Z,24.30
2019-04-20T12:23:34.006Z,24.21
2019-04-20T12:24:33.389Z,24.33
2019-04-20T12:25:35.907Z,24.29
2019-04-20T12:26:33.460Z,24.27
2019-04-20T12:27:34.518Z,24.27
2019-04-20T12:28:33.737Z,24.29
2019-04-20T12:29:34.063Z,24.30
2019-04-20T12:30:33.748Z,24.30
2019-04-20T12:31:33.640Z,24.26
2019-04-20T12:32:39.210Z,24.29
2019-04-20T12:33:34.538Z,24.24
2019-04-20T12:34:34.988Z,24.36
2019-04-20T12:35:34.194Z,24.30
2019-04-20T12:36:35.227Z,24.36
2019-04-20T12:37:34.280Z,24.33
2019-04-20T12:38:34.887Z,24.31
2019-04-20T12:39:35.266Z,24.33
2019-04-20T12:40:34.169Z,24.34
2019-04-20T12:41:41.507Z,24.31
2019-04-20T12:42:34.872Z,24.31
2019-04-20T12:44:35.403Z,24.37
2019-04-20T12:45:35.564Z,24.36
2019-04-20T12:46:35.924Z,24.33
2019-04-20T12:47:35.387Z,24.36
2019-04-20T12:48:35.463Z,24.41
2019-04-20T12:49:34.270Z,24.37
2019-04-20T12:50:35.298Z,24.37
2019-04-20T12:52:34.696Z,24.46
2019-04-20T12:53:34.973Z,24.46
2019-04-20T12:54:34.508Z,24.45
2019-04-20T12:55:34.771Z,24.48
2019-04-20T12:56:34.862Z,24.44
2019-04-20T12:57:34.607Z,24.42
2019-04-20T12:58:34.697Z,24.53
2019-04-20T12:59:35.773Z,24.48
2019-04-20T13:00:35.239Z,24.48
2019-04-20T13:01:35.442Z,24.49
2019-04-20T13:02:35.504Z,24.46
2019-04-20T13:03:35.218Z,24.49
2019-04-20T13:05:36.021Z,24.53
2019-04-20T13:07:40.193Z,24.56
2019-04-20T13:08:39.127Z,24.60
2019-04-20T13:09:34.990Z,24.70
2019-04-20T13:13:36.447Z,24.83
2019-04-20T13:14:35.178Z,24.92
2019-04-20T13:15:36.441Z,24.99
2019-04-20T13:16:36.436Z,24.99
2019-04-20T13:17:35.273Z,25.07
2019-04-20T13:18:35.319Z,25.08
2019-04-20T13:19:35.481Z,25.12
2019-04-20T13:20:36.266Z,25.11
2019-04-20T13:21:36.750Z,25.14
2019-04-20T13:22:35.459Z,25.26
2019-04-20T13:23:35.554Z,25.24
2019-04-20T13:24:36.877Z,25.38
2019-04-20T13:25:36.777Z,25.44
2019-04-20T13:26:35.614Z,25.36
2019-04-20T13:27:36.666Z,25.44
2019-04-20T13:28:36.754Z,25.48
2019-04-20T13:29:37.222Z,25.51
2019-04-20T13:30:35.811Z,25.56
2019-04-20T13:31:35.868Z,25.64
2019-04-20T13:32:36.111Z,25.66